sensor_id;sensor_type;location;lat;lon;timestamp;pressure;altitude;pressure_sealevel;temperature;humidity
20156;BME280;10238;49.556;10.956;2023-04-05T00:02:14;98948.72;;;-0.87;100.00
20156;BME280;10238;49.556;10.956;2023-04-05T00:05:04;98952.41;;;-0.91;100.00
20156;BME280;10238;49.556;10.956;2023-04-05T00:07:54;98952.47;;;-0.93;100.00
20156;BME280;10238;49.556;10.956;2023-04-05T00:10:42;98942.31;;;-0.99;100.00
20156;BME280;10238;49.556;10.956;2023-04-05T00:13:30;98946.13;;;-1.06;100.00
20156;BME280;10238;49.556;10.956;2023-04-05T00:16:19;98940.97;;;-1.07;100.00
20156;BME280;10238;49.556;10.956;2023-04-05T00:19:07;98940.06;;;-1.06;100.00
20156;BME280;10238;49.556;10.956;2023-04-05T00:21:56;98935.03;;;-1.11;100.00
20156;BME280;10238;49.556;10.956;2023-04-05T00:24:45;98931.81;;;-1.16;100.00
20156;BME280;10238;49.556;10.956;2023-04-05T00:27:34;98933.63;;;-1.18;100.00
20156;BME280;10238;49.556;10.956;2023-04-05T00:30:22;98928.41;;;-1.18;100.00
20156;BME280;10238;49.556;10.956;2023-04-05T00:33:12;98923.47;;;-1.24;100.00
20156;BME280;10238;49.556;10.956;2023-04-05T00:36:08;98924.59;;;-1.29;100.00
20156;BME280;10238;49.556;10.956;2023-04-05T00:38:57;98919.66;;;-1.35;100.00
20156;BME280;10238;49.556;10.956;2023-04-05T00:41:46;98924.13;;;-1.39;100.00
20156;BME280;10238;49.556;10.956;2023-04-05T00:44:35;98921.91;;;-1.46;100.00
20156;BME280;10238;49.556;10.956;2023-04-05T00:47:23;98925.38;;;-1.47;100.00
20156;BME280;10238;49.556;10.956;2023-04-05T00:50:11;98921.03;;;-1.47;100.00
20156;BME280;10238;49.556;10.956;2023-04-05T00:53:02;98923.03;;;-1.53;100.00
20156;BME280;10238;49.556;10.956;2023-04-05T00:55:50;98912.00;;;-1.58;100.00
20156;BME280;10238;49.556;10.956;2023-04-05T00:58:40;98914.00;;;-1.65;100.00
20156;BME280;10238;49.556;10.956;2023-04-05T01:01:28;98912.38;;;-1.67;100.00
20156;BME280;10238;49.556;10.956;2023-04-05T01:04:20;98911.66;;;-1.71;100.00
20156;BME280;10238;49.556;10.956;2023-04-05T01:07:12;98902.34;;;-1.76;100.00
20156;BME280;10238;49.556;10.956;2023-04-05T01:10:07;98895.59;;;-1.80;100.00
20156;BME280;10238;49.556;10.956;2023-04-05T01:12:56;98900.94;;;-1.83;100.00
20156;BME280;10238;49.556;10.956;2023-04-05T01:15:45;98895.97;;;-1.89;100.00
20156;BME280;10238;49.556;10.956;2023-04-05T01:18:33;98892.72;;;-1.94;100.00
20156;BME280;10238;49.556;10.956;2023-04-05T01:21:45;98889.47;;;-1.99;100.00
20156;BME280;10238;49.556;10.956;2023-04-05T01:25:10;98880.72;;;-1.98;100.00
20156;BME280;10238;49.556;10.956;2023-04-05T01:28:43;98882.56;;;-2.00;100.00
20156;BME280;10238;49.556;10.956;2023-04-05T01:31:42;98874.09;;;-2.05;100.00
20156;BME280;10238;49.556;10.956;2023-04-05T01:34:39;98875.09;;;-2.08;100.00
20156;BME280;10238;49.556;10.956;2023-04-05T01:37:31;98867.47;;;-2.12;100.00
20156;BME280;10238;49.556;10.956;2023-04-05T01:40:21;98864.91;;;-2.14;100.00
20156;BME280;10238;49.556;10.956;2023-04-05T01:43:13;98863.19;;;-2.13;100.00
20156;BME280;10238;49.556;10.956;2023-04-05T01:46:01;98863.31;;;-2.16;100.00
20156;BME280;10238;49.556;10.956;2023-04-05T01:48:50;98860.94;;;-2.22;100.00
20156;BME280;10238;49.556;10.956;2023-04-05T01:51:38;98857.69;;;-2.28;100.00
20156;BME280;10238;49.556;10.956;2023-04-05T01:54:27;98856.13;;;-2.32;100.00
20156;BME280;10238;49.556;10.956;2023-04-05T01:57:15;98864.00;;;-2.33;100.00
20156;BME280;10238;49.556;10.956;2023-04-05T02:00:04;98866.78;;;-2.38;100.00
20156;BME280;10238;49.556;10.956;2023-04-05T02:02:52;98863.50;;;-2.43;100.00
20156;BME280;10238;49.556;10.956;2023-04-05T02:05:41;98854.19;;;-2.48;100.00
20156;BME280;10238;49.556;10.956;2023-04-05T02:08:29;98870.69;;;-2.48;100.00
20156;BME280;10238;49.556;10.956;2023-04-05T02:11:17;98867.94;;;-2.45;100.00
20156;BME280;10238;49.556;10.956;2023-04-05T02:14:05;98870.38;;;-2.40;100.00
20156;BME280;10238;49.556;10.956;2023-04-05T02:16:53;98870.44;;;-2.42;100.00
20156;BME280;10238;49.556;10.956;2023-04-05T02:19:42;98870.44;;;-2.42;100.00
20156;BME280;10238;49.556;10.956;2023-04-05T02:22:33;98863.78;;;-2.49;100.00
20156;BME280;10238;49.556;10.956;2023-04-05T02:25:22;98867.47;;;-2.54;100.00
20156;BME280;10238;49.556;10.956;2023-04-05T02:28:10;98859.97;;;-2.62;100.00
20156;BME280;10238;49.556;10.956;2023-04-05T02:30:58;98873.25;;;-2.68;100.00
20156;BME280;10238;49.556;10.956;2023-04-05T02:33:46;98864.75;;;-2.73;100.00
20156;BME280;10238;49.556;10.956;2023-04-05T02:36:34;98868.34;;;-2.75;100.00
20156;BME280;10238;49.556;10.956;2023-04-05T02:39:23;98861.47;;;-2.78;100.00
20156;BME280;10238;49.556;10.956;2023-04-05T02:42:11;98868.56;;;-2.81;100.00
20156;BME280;10238;49.556;10.956;2023-04-05T02:44:59;98865.13;;;-2.82;100.00
20156;BME280;10238;49.556;10.956;2023-04-05T02:47:47;98862.56;;;-2.83;100.00
20156;BME280;10238;49.556;10.956;2023-04-05T02:50:35;98864.09;;;-2.78;100.00
20156;BME280;10238;49.556;10.956;2023-04-05T02:53:23;98858.00;;;-2.77;100.00
20156;BME280;10238;49.556;10.956;2023-04-05T02:56:12;98867.72;;;-2.82;100.00
20156;BME280;10238;49.556;10.956;2023-04-05T02:59:00;98856.66;;;-2.87;100.00
20156;BME280;10238;49.556;10.956;2023-04-05T03:01:49;98855.06;;;-2.91;100.00
20156;BME280;10238;49.556;10.956;2023-04-05T03:04:37;98853.44;;;-2.93;100.00
20156;BME280;10238;49.556;10.956;2023-04-05T03:07:26;98857.03;;;-2.96;100.00
20156;BME280;10238;49.556;10.956;2023-04-05T03:10:15;98851.09;;;-2.99;100.00
20156;BME280;10238;49.556;10.956;2023-04-05T03:13:05;98856.34;;;-3.01;100.00
20156;BME280;10238;49.556;10.956;2023-04-05T03:15:53;98847.88;;;-3.06;100.00
20156;BME280;10238;49.556;10.956;2023-04-05T03:18:41;98850.59;;;-3.09;100.00
20156;BME280;10238;49.556;10.956;2023-04-05T03:21:29;98847.31;;;-3.14;100.00
20156;BME280;10238;49.556;10.956;2023-04-05T03:24:17;98835.34;;;-3.18;100.00
20156;BME280;10238;49.556;10.956;2023-04-05T03:27:05;98845.06;;;-3.23;100.00
20156;BME280;10238;49.556;10.956;2023-04-05T03:29:54;98839.22;;;-3.28;100.00
20156;BME280;10238;49.556;10.956;2023-04-05T03:32:42;98844.47;;;-3.29;100.00
20156;BME280;10238;49.556;10.956;2023-04-05T03:35:30;98838.53;;;-3.33;100.00
20156;BME280;10238;49.556;10.956;2023-04-05T03:38:19;98848.00;;;-3.32;100.00
20156;BME280;10238;49.556;10.956;2023-04-05T03:41:06;98849.63;;;-3.28;100.00
20156;BME280;10238;49.556;10.956;2023-04-05T03:43:54;98843.56;;;-3.28;100.00
20156;BME280;10238;49.556;10.956;2023-04-05T03:46:44;98848.75;;;-3.28;100.00
20156;BME280;10238;49.556;10.956;2023-04-05T03:49:32;98838.59;;;-3.34;100.00
20156;BME280;10238;49.556;10.956;2023-04-05T03:52:19;98845.63;;;-3.36;100.00
20156;BME280;10238;49.556;10.956;2023-04-05T03:55:08;98846.44;;;-3.36;100.00
20156;BME280;10238;49.556;10.956;2023-04-05T03:57:56;98843.84;;;-3.36;100.00
20156;BME280;10238;49.556;10.956;2023-04-05T04:00:44;98841.19;;;-3.34;100.00
20156;BME280;10238;49.556;10.956;2023-04-05T04:03:34;98847.41;;;-3.38;100.00
20156;BME280;10238;49.556;10.956;2023-04-05T04:06:22;98841.63;;;-3.46;100.00
20156;BME280;10238;49.556;10.956;2023-04-05T04:09:12;98843.63;;;-3.53;100.00
20156;BME280;10238;49.556;10.956;2023-04-05T04:12:00;98846.47;;;-3.59;100.00
20156;BME280;10238;49.556;10.956;2023-04-05T04:14:48;98842.19;;;-3.60;100.00
20156;BME280;10238;49.556;10.956;2023-04-05T04:17:36;98845.66;;;-3.61;100.00
20156;BME280;10238;49.556;10.956;2023-04-05T04:20:26;98846.56;;;-3.62;100.00
20156;BME280;10238;49.556;10.956;2023-04-05T04:23:14;98852.69;;;-3.63;100.00
20156;BME280;10238;49.556;10.956;2023-04-05T04:26:02;98844.09;;;-3.65;100.00
20156;BME280;10238;49.556;10.956;2023-04-05T04:28:50;98847.69;;;-3.69;100.00
20156;BME280;10238;49.556;10.956;2023-04-05T04:31:38;98852.09;;;-3.71;100.00
20156;BME280;10238;49.556;10.956;2023-04-05T04:34:31;98851.44;;;-3.76;100.00
20156;BME280;10238;49.556;10.956;2023-04-05T04:37:21;98852.25;;;-3.75;100.00
20156;BME280;10238;49.556;10.956;2023-04-05T04:40:15;98848.84;;;-3.76;100.00
20156;BME280;10238;49.556;10.956;2023-04-05T04:43:04;98843.63;;;-3.76;100.00
20156;BME280;10238;49.556;10.956;2023-04-05T04:45:52;98841.25;;;-3.82;100.00
20156;BME280;10238;49.556;10.956;2023-04-05T04:48:41;98850.94;;;-3.87;100.00
20156;BME280;10238;49.556;10.956;2023-04-05T04:51:29;98844.94;;;-3.89;100.00
20156;BME280;10238;49.556;10.956;2023-04-05T04:54:18;98841.59;;;-3.91;100.00
20156;BME280;10238;49.556;10.956;2023-04-05T04:57:10;98851.22;;;-3.94;100.00
20156;BME280;10238;49.556;10.956;2023-04-05T04:59:58;98863.25;;;-3.92;100.00
20156;BME280;10238;49.556;10.956;2023-04-05T05:02:47;98861.28;;;-3.85;100.00
20156;BME280;10238;49.556;10.956;2023-04-05T05:05:35;98858.53;;;-3.81;100.00
20156;BME280;10238;49.556;10.956;2023-04-05T05:08:22;98863.75;;;-3.82;100.00
20156;BME280;10238;49.556;10.956;2023-04-05T05:11:12;98863.72;;;-3.81;100.00
20156;BME280;10238;49.556;10.956;2023-04-05T05:14:00;98871.63;;;-3.84;100.00
20156;BME280;10238;49.556;10.956;2023-04-05T05:16:48;98870.69;;;-3.83;100.00
20156;BME280;10238;49.556;10.956;2023-04-05T05:19:36;98867.38;;;-3.86;100.00
20156;BME280;10238;49.556;10.956;2023-04-05T05:22:24;98863.22;;;-3.90;100.00
20156;BME280;10238;49.556;10.956;2023-04-05T05:25:12;98866.75;;;-3.93;100.00
20156;BME280;10238;49.556;10.956;2023-04-05T05:28:01;98865.97;;;-3.95;100.00
20156;BME280;10238;49.556;10.956;2023-04-05T05:30:49;98868.63;;;-3.96;100.00
20156;BME280;10238;49.556;10.956;2023-04-05T05:33:37;98865.97;;;-3.95;100.00
20156;BME280;10238;49.556;10.956;2023-04-05T05:36:25;98872.84;;;-3.94;100.00
20156;BME280;10238;49.556;10.956;2023-04-05T05:39:13;98873.66;;;-3.92;100.00
20156;BME280;10238;49.556;10.956;2023-04-05T05:42:01;98877.06;;;-3.91;100.00
20156;BME280;10238;49.556;10.956;2023-04-05T05:44:51;98874.41;;;-3.90;100.00
20156;BME280;10238;49.556;10.956;2023-04-05T05:47:39;98872.75;;;-3.91;100.00
20156;BME280;10238;49.556;10.956;2023-04-05T05:50:27;98881.38;;;-3.90;100.00
20156;BME280;10238;49.556;10.956;2023-04-05T05:53:18;98887.34;;;-3.88;100.00
20156;BME280;10238;49.556;10.956;2023-04-05T05:56:06;98894.78;;;-3.78;100.00
20156;BME280;10238;49.556;10.956;2023-04-05T05:58:54;98894.78;;;-3.78;100.00
20156;BME280;10238;49.556;10.956;2023-04-05T06:01:43;98890.31;;;-3.74;100.00
20156;BME280;10238;49.556;10.956;2023-04-05T06:04:32;98884.94;;;-3.70;100.00
20156;BME280;10238;49.556;10.956;2023-04-05T06:07:20;98877.94;;;-3.68;100.00
20156;BME280;10238;49.556;10.956;2023-04-05T06:10:20;98883.84;;;-3.63;100.00
20156;BME280;10238;49.556;10.956;2023-04-05T06:13:09;98886.09;;;-3.54;100.00
20156;BME280;10238;49.556;10.956;2023-04-05T06:16:00;98887.00;;;-3.55;100.00
20156;BME280;10238;49.556;10.956;2023-04-05T06:18:49;98892.84;;;-3.48;100.00
20156;BME280;10238;49.556;10.956;2023-04-05T06:21:37;98892.63;;;-3.42;100.00
20156;BME280;10238;49.556;10.956;2023-04-05T06:24:25;98894.06;;;-3.35;100.00
20156;BME280;10238;49.556;10.956;2023-04-05T06:27:17;98891.97;;;-3.26;100.00
20156;BME280;10238;49.556;10.956;2023-04-05T06:30:06;98893.19;;;-3.13;100.00
20156;BME280;10238;49.556;10.956;2023-04-05T06:32:54;98890.19;;;-3.02;100.00
20156;BME280;10238;49.556;10.956;2023-04-05T06:35:45;98889.06;;;-2.95;100.00
20156;BME280;10238;49.556;10.956;2023-04-05T06:38:33;98883.56;;;-2.88;100.00
20156;BME280;10238;49.556;10.956;2023-04-05T06:41:21;98887.50;;;-2.78;100.00
20156;BME280;10238;49.556;10.956;2023-04-05T06:44:09;98881.94;;;-2.69;100.00
20156;BME280;10238;49.556;10.956;2023-04-05T06:46:57;98890.16;;;-2.58;100.00
20156;BME280;10238;49.556;10.956;2023-04-05T06:49:45;98888.84;;;-2.46;100.00
20156;BME280;10238;49.556;10.956;2023-04-05T06:52:35;98881.47;;;-2.37;100.00
20156;BME280;10238;49.556;10.956;2023-04-05T06:55:23;98885.09;;;-2.19;100.00
20156;BME280;10238;49.556;10.956;2023-04-05T06:58:11;98887.91;;;-2.03;100.00
20156;BME280;10238;49.556;10.956;2023-04-05T07:01:00;98892.44;;;-1.88;100.00
20156;BME280;10238;49.556;10.956;2023-04-05T07:03:48;98896.72;;;-1.86;100.00
20156;BME280;10238;49.556;10.956;2023-04-05T07:06:35;98890.19;;;-1.76;100.00
20156;BME280;10238;49.556;10.956;2023-04-05T07:09:25;98880.25;;;-1.68;100.00
20156;BME280;10238;49.556;10.956;2023-04-05T07:12:16;98882.06;;;-1.50;100.00
20156;BME280;10238;49.556;10.956;2023-04-05T07:15:05;98885.69;;;-1.34;100.00
20156;BME280;10238;49.556;10.956;2023-04-05T07:17:53;98880.75;;;-1.21;100.00
20156;BME280;10238;49.556;10.956;2023-04-05T07:20:41;98882.03;;;-0.93;100.00
20156;BME280;10238;49.556;10.956;2023-04-05T07:23:30;98880.13;;;-0.71;100.00
20156;BME280;10238;49.556;10.956;2023-04-05T07:26:19;98880.34;;;-0.58;100.00
20156;BME280;10238;49.556;10.956;2023-04-05T07:29:08;98872.25;;;-0.52;100.00
20156;BME280;10238;49.556;10.956;2023-04-05T07:31:56;98865.06;;;-0.30;100.00
20156;BME280;10238;49.556;10.956;2023-04-05T07:34:44;98866.31;;;-0.03;100.00
20156;BME280;10238;49.556;10.956;2023-04-05T07:37:32;98856.78;;;0.13;100.00
20156;BME280;10238;49.556;10.956;2023-04-05T07:40:20;98861.66;;;0.19;100.00
20156;BME280;10238;49.556;10.956;2023-04-05T07:43:09;98858.81;;;0.56;100.00
20156;BME280;10238;49.556;10.956;2023-04-05T07:46:01;98852.47;;;0.77;100.00
20156;BME280;10238;49.556;10.956;2023-04-05T07:48:49;98859.75;;;1.03;100.00
20156;BME280;10238;49.556;10.956;2023-04-05T07:51:37;98850.44;;;1.29;100.00
20156;BME280;10238;49.556;10.956;2023-04-05T07:54:25;98857.53;;;1.42;100.00
20156;BME280;10238;49.556;10.956;2023-04-05T07:57:16;98845.69;;;1.66;100.00
20156;BME280;10238;49.556;10.956;2023-04-05T08:00:07;98851.75;;;1.96;100.00
20156;BME280;10238;49.556;10.956;2023-04-05T08:02:58;98839.94;;;2.19;100.00
20156;BME280;10238;49.556;10.956;2023-04-05T08:05:47;98836.34;;;2.34;100.00
20156;BME280;10238;49.556;10.956;2023-04-05T08:08:35;98832.38;;;2.57;100.00
20156;BME280;10238;49.556;10.956;2023-04-05T08:11:26;98836.94;;;2.95;100.00
20156;BME280;10238;49.556;10.956;2023-04-05T08:14:14;98832.88;;;3.04;100.00
20156;BME280;10238;49.556;10.956;2023-04-05T08:17:03;98828.25;;;3.21;100.00
20156;BME280;10238;49.556;10.956;2023-04-05T08:19:50;98823.75;;;3.50;100.00
20156;BME280;10238;49.556;10.956;2023-04-05T08:22:38;98825.50;;;3.76;100.00
20156;BME280;10238;49.556;10.956;2023-04-05T08:25:27;98819.22;;;3.91;97.35
20156;BME280;10238;49.556;10.956;2023-04-05T08:28:15;98823.88;;;4.00;98.01
20156;BME280;10238;49.556;10.956;2023-04-05T08:31:03;98817.06;;;4.10;89.81
20156;BME280;10238;49.556;10.956;2023-04-05T08:33:52;98824.97;;;4.35;89.61
20156;BME280;10238;49.556;10.956;2023-04-05T08:36:40;98818.66;;;4.50;90.03
20156;BME280;10238;49.556;10.956;2023-04-05T08:39:28;98819.19;;;4.68;87.31
20156;BME280;10238;49.556;10.956;2023-04-05T08:42:18;98809.16;;;4.85;83.34
20156;BME280;10238;49.556;10.956;2023-04-05T08:45:10;98813.47;;;5.22;86.95
20156;BME280;10238;49.556;10.956;2023-04-05T08:48:01;98815.56;;;5.53;82.45
20156;BME280;10238;49.556;10.956;2023-04-05T08:50:51;98814.44;;;5.45;74.20
20156;BME280;10238;49.556;10.956;2023-04-05T08:53:47;98811.13;;;5.77;78.89
20156;BME280;10238;49.556;10.956;2023-04-05T08:56:36;98809.13;;;6.15;79.88
20156;BME280;10238;49.556;10.956;2023-04-05T08:59:25;98804.78;;;6.03;72.12
20156;BME280;10238;49.556;10.956;2023-04-05T09:02:16;98798.72;;;6.25;73.09
20156;BME280;10238;49.556;10.956;2023-04-05T09:05:08;98795.75;;;6.51;73.34
20156;BME280;10238;49.556;10.956;2023-04-05T09:07:59;98794.69;;;6.76;74.82
20156;BME280;10238;49.556;10.956;2023-04-05T09:10:49;98789.47;;;7.19;78.37
20156;BME280;10238;49.556;10.956;2023-04-05T09:13:38;98797.78;;;7.57;74.78
20156;BME280;10238;49.556;10.956;2023-04-05T09:16:26;98804.81;;;7.36;65.66
20156;BME280;10238;49.556;10.956;2023-04-05T09:19:15;98792.78;;;8.47;86.48
20156;BME280;10238;49.556;10.956;2023-04-05T09:22:04;98794.13;;;8.92;76.73
20156;BME280;10238;49.556;10.956;2023-04-05T09:24:53;98794.78;;;8.54;63.11
20156;BME280;10238;49.556;10.956;2023-04-05T09:27:53;98780.59;;;8.95;78.01
20156;BME280;10238;49.556;10.956;2023-04-05T09:30:45;98784.13;;;9.92;88.89
20156;BME280;10238;49.556;10.956;2023-04-05T09:33:34;98777.72;;;9.85;64.67
20156;BME280;10238;49.556;10.956;2023-04-05T09:36:55;98783.56;;;9.60;63.58
20156;BME280;10238;49.556;10.956;2023-04-05T09:39:44;98769.16;;;10.29;65.85
20156;BME280;10238;49.556;10.956;2023-04-05T09:42:42;98767.22;;;11.32;75.87
20156;BME280;10238;49.556;10.956;2023-04-05T09:45:59;98769.78;;;11.24;58.07
20156;BME280;10238;49.556;10.956;2023-04-05T09:48:48;98760.63;;;12.23;71.89
20156;BME280;10238;49.556;10.956;2023-04-05T09:51:37;98762.00;;;12.78;62.86
20156;BME280;10238;49.556;10.956;2023-04-05T09:54:25;98763.56;;;12.97;67.58
20156;BME280;10238;49.556;10.956;2023-04-05T09:57:15;98750.19;;;13.72;69.78
20156;BME280;10238;49.556;10.956;2023-04-05T10:00:15;98744.53;;;14.15;65.63
20156;BME280;10238;49.556;10.956;2023-04-05T10:03:04;98757.22;;;13.81;58.65
20156;BME280;10238;49.556;10.956;2023-04-05T10:05:55;98758.53;;;12.86;58.58
20156;BME280;10238;49.556;10.956;2023-04-05T10:08:43;98763.09;;;13.27;59.41
20156;BME280;10238;49.556;10.956;2023-04-05T10:11:32;98748.53;;;14.43;67.25
20156;BME280;10238;49.556;10.956;2023-04-05T10:14:20;98744.16;;;15.52;61.91
20156;BME280;10238;49.556;10.956;2023-04-05T10:17:13;98745.47;;;16.09;58.43
20156;BME280;10238;49.556;10.956;2023-04-05T10:20:11;98741.44;;;16.50;57.70
20156;BME280;10238;49.556;10.956;2023-04-05T10:23:06;98747.56;;;16.73;59.65
20156;BME280;10238;49.556;10.956;2023-04-05T10:26:03;98749.44;;;17.01;55.75
20156;BME280;10238;49.556;10.956;2023-04-05T10:28:59;98741.84;;;17.05;58.21
20156;BME280;10238;49.556;10.956;2023-04-05T10:31:54;98746.03;;;16.93;57.14
20156;BME280;10238;49.556;10.956;2023-04-05T10:38:04;98744.16;;;16.93;56.59
20156;BME280;10238;49.556;10.956;2023-04-05T10:41:04;98741.00;;;16.61;58.98
20156;BME280;10238;49.556;10.956;2023-04-05T10:43:56;98736.38;;;16.55;59.31
20156;BME280;10238;49.556;10.956;2023-04-05T10:46:54;98734.34;;;16.34;57.30
20156;BME280;10238;49.556;10.956;2023-04-05T10:49:48;98733.50;;;16.34;56.38
20156;BME280;10238;49.556;10.956;2023-04-05T10:52:36;98736.28;;;16.26;56.48
20156;BME280;10238;49.556;10.956;2023-04-05T10:55:26;98738.47;;;16.22;54.08
20156;BME280;10238;49.556;10.956;2023-04-05T10:58:15;98730.78;;;16.19;53.78
20156;BME280;10238;49.556;10.956;2023-04-05T11:01:03;98728.78;;;15.99;50.98
20156;BME280;10238;49.556;10.956;2023-04-05T11:03:52;98738.66;;;16.43;54.60
20156;BME280;10238;49.556;10.956;2023-04-05T11:06:42;98727.59;;;16.75;55.93
20156;BME280;10238;49.556;10.956;2023-04-05T11:09:33;98724.91;;;16.90;51.18
20156;BME280;10238;49.556;10.956;2023-04-05T11:15:43;98716.47;;;16.27;54.05
20156;BME280;10238;49.556;10.956;2023-04-05T11:18:31;98710.81;;;16.88;56.67
20156;BME280;10238;49.556;10.956;2023-04-05T11:21:21;98716.28;;;13.97;39.73
20156;BME280;10238;49.556;10.956;2023-04-05T11:24:11;98711.91;;;15.68;52.51
20156;BME280;10238;49.556;10.956;2023-04-05T11:27:08;98711.56;;;16.30;56.15
20156;BME280;10238;49.556;10.956;2023-04-05T11:29:57;98701.59;;;17.41;57.78
20156;BME280;10238;49.556;10.956;2023-04-05T11:32:45;98702.03;;;16.79;48.98
20156;BME280;10238;49.556;10.956;2023-04-05T11:35:34;98696.72;;;17.44;53.98
20156;BME280;10238;49.556;10.956;2023-04-05T11:38:25;98697.94;;;17.12;51.17
20156;BME280;10238;49.556;10.956;2023-04-05T11:41:16;98688.94;;;18.40;55.16
20156;BME280;10238;49.556;10.956;2023-04-05T11:44:04;98682.50;;;19.02;54.80
20156;BME280;10238;49.556;10.956;2023-04-05T11:47:02;98678.75;;;19.44;52.53
20156;BME280;10238;49.556;10.956;2023-04-05T11:49:51;98666.34;;;19.63;52.52
20156;BME280;10238;49.556;10.956;2023-04-05T11:52:38;98676.31;;;19.56;51.15
20156;BME280;10238;49.556;10.956;2023-04-05T11:55:26;98667.19;;;19.70;50.92
20156;BME280;10238;49.556;10.956;2023-04-05T11:58:20;98665.81;;;20.00;39.94
20156;BME280;10238;49.556;10.956;2023-04-05T12:01:09;98666.78;;;19.73;52.29
20156;BME280;10238;49.556;10.956;2023-04-05T12:03:56;98663.00;;;19.41;52.02
20156;BME280;10238;49.556;10.956;2023-04-05T12:06:45;98659.78;;;20.50;51.92
20156;BME280;10238;49.556;10.956;2023-04-05T12:09:33;98653.72;;;20.74;47.85
20156;BME280;10238;49.556;10.956;2023-04-05T12:12:21;98662.06;;;20.27;38.90
20156;BME280;10238;49.556;10.956;2023-04-05T12:15:11;98650.41;;;19.68;38.62
20156;BME280;10238;49.556;10.956;2023-04-05T12:18:00;98657.22;;;20.94;50.27
20156;BME280;10238;49.556;10.956;2023-04-05T12:20:49;98641.03;;;21.76;47.22
20156;BME280;10238;49.556;10.956;2023-04-05T12:23:37;98637.75;;;21.98;48.56
20156;BME280;10238;49.556;10.956;2023-04-05T12:26:25;98641.31;;;21.92;37.55
20156;BME280;10238;49.556;10.956;2023-04-05T12:32:54;98631.66;;;22.27;47.56
20156;BME280;10238;49.556;10.956;2023-04-05T12:35:42;98629.94;;;22.57;45.30
20156;BME280;10238;49.556;10.956;2023-04-05T12:38:30;98625.72;;;22.61;43.64
20156;BME280;10238;49.556;10.956;2023-04-05T12:41:26;98632.06;;;22.06;41.65
20156;BME280;10238;49.556;10.956;2023-04-05T12:44:15;98629.13;;;22.57;49.05
20156;BME280;10238;49.556;10.956;2023-04-05T12:47:03;98621.81;;;22.75;47.89
20156;BME280;10238;49.556;10.956;2023-04-05T12:49:57;98617.75;;;22.66;44.99
20156;BME280;10238;49.556;10.956;2023-04-05T12:52:57;98615.13;;;22.35;41.15
20156;BME280;10238;49.556;10.956;2023-04-05T12:55:51;98612.56;;;22.40;42.43
20156;BME280;10238;49.556;10.956;2023-04-05T12:58:39;98608.38;;;22.44;40.09
20156;BME280;10238;49.556;10.956;2023-04-05T13:01:27;98610.97;;;22.33;40.42
20156;BME280;10238;49.556;10.956;2023-04-05T13:04:16;98602.16;;;22.19;37.66
20156;BME280;10238;49.556;10.956;2023-04-05T13:07:05;98600.16;;;22.08;44.40
20156;BME280;10238;49.556;10.956;2023-04-05T13:09:53;98601.06;;;21.71;42.47
20156;BME280;10238;49.556;10.956;2023-04-05T13:12:41;98601.16;;;21.58;41.98
20156;BME280;10238;49.556;10.956;2023-04-05T13:15:30;98596.78;;;21.57;41.86
20156;BME280;10238;49.556;10.956;2023-04-05T13:18:19;98595.88;;;20.88;35.58
20156;BME280;10238;49.556;10.956;2023-04-05T13:21:07;98597.25;;;21.10;43.90
20156;BME280;10238;49.556;10.956;2023-04-05T13:23:57;98598.63;;;20.75;41.78
20156;BME280;10238;49.556;10.956;2023-04-05T13:26:44;98586.50;;;20.97;43.51
20156;BME280;10238;49.556;10.956;2023-04-05T13:29:32;98581.47;;;21.07;43.97
20156;BME280;10238;49.556;10.956;2023-04-05T13:32:29;98584.63;;;19.69;35.64
20156;BME280;10238;49.556;10.956;2023-04-05T13:35:18;98579.13;;;19.16;43.59
20156;BME280;10238;49.556;10.956;2023-04-05T13:38:27;98581.75;;;17.46;39.37
20156;BME280;10238;49.556;10.956;2023-04-05T13:41:16;98571.88;;;18.63;45.87
20156;BME280;10238;49.556;10.956;2023-04-05T13:44:05;98575.94;;;17.91;38.44
20156;BME280;10238;49.556;10.956;2023-04-05T13:46:53;98566.16;;;18.86;40.82
20156;BME280;10238;49.556;10.956;2023-04-05T13:49:41;98565.13;;;19.60;40.62
20156;BME280;10238;49.556;10.956;2023-04-05T13:52:29;98561.53;;;18.73;37.21
20156;BME280;10238;49.556;10.956;2023-04-05T13:55:17;98550.97;;;19.84;43.57
20156;BME280;10238;49.556;10.956;2023-04-05T13:58:06;98560.06;;;20.42;42.95
20156;BME280;10238;49.556;10.956;2023-04-05T14:00:54;98552.50;;;20.70;43.89
20156;BME280;10238;49.556;10.956;2023-04-05T14:03:42;98546.41;;;20.81;43.47
20156;BME280;10238;49.556;10.956;2023-04-05T14:06:30;98543.34;;;20.77;42.70
20156;BME280;10238;49.556;10.956;2023-04-05T14:09:18;98544.75;;;19.90;33.74
20156;BME280;10238;49.556;10.956;2023-04-05T14:12:06;98550.38;;;19.95;36.86
20156;BME280;10238;49.556;10.956;2023-04-05T14:14:55;98553.91;;;19.57;39.68
20156;BME280;10238;49.556;10.956;2023-04-05T14:17:45;98549.84;;;19.00;32.03
20156;BME280;10238;49.556;10.956;2023-04-05T14:20:34;98549.63;;;19.08;41.11
20156;BME280;10238;49.556;10.956;2023-04-05T14:23:22;98546.63;;;20.03;43.54
20156;BME280;10238;49.556;10.956;2023-04-05T14:26:12;98533.75;;;20.75;44.46
20156;BME280;10238;49.556;10.956;2023-04-05T14:29:00;98537.34;;;21.13;42.50
20156;BME280;10238;49.556;10.956;2023-04-05T14:31:50;98536.03;;;21.22;41.28
20156;BME280;10238;49.556;10.956;2023-04-05T14:34:37;98527.19;;;21.40;40.87
20156;BME280;10238;49.556;10.956;2023-04-05T14:37:25;98527.53;;;21.50;43.13
20156;BME280;10238;49.556;10.956;2023-04-05T14:40:13;98527.97;;;19.82;31.11
20156;BME280;10238;49.556;10.956;2023-04-05T14:43:02;98528.59;;;19.71;43.73
20156;BME280;10238;49.556;10.956;2023-04-05T14:45:50;98530.22;;;18.59;42.35
20156;BME280;10238;49.556;10.956;2023-04-05T14:48:39;98522.53;;;20.08;44.43
20156;BME280;10238;49.556;10.956;2023-04-05T14:51:27;98525.63;;;20.18;39.48
20156;BME280;10238;49.556;10.956;2023-04-05T14:54:15;98517.97;;;20.72;43.56